Time;durP1;ratioP1;P1;durP2;ratioP2;P2;SDS_P1;SDS_P2;PMS_P1;PMS_P2;Temp;Humidity;BMP_temperature;BMP_pressure;BME280_temperature;BME280_humidity;BME280_pressure;Samples;Min_cycle;Max_cycle;Signal;HPM_P1;HPM_P2
2023/03/08 10:30:45;;;;;;;47.85;18.85;;;3.40;99.90;;;;;;5077378;27;20375;-73
2023/03/08 10:33:13;;;;;;;52.50;18.55;;;3.40;99.90;;;;;;5088638;28;20499;-72
2023/03/08 10:36:00;;;;;;;50.78;18.52;;;3.50;99.90;;;;;;5074063;28;20118;-75
2023/03/08 10:38:29;;;;;;;46.40;18.10;;;3.60;99.90;;;;;;5085024;28;20020;-74
2023/03/08 10:41:03;;;;;;;46.72;16.65;;;3.70;99.90;;;;;;5094849;28;20024;-79
2023/03/08 10:43:38;;;;;;;37.38;14.55;;;3.70;99.90;;;;;;5090906;28;20561;-73
2023/03/08 10:46:10;;;;;;;39.80;15.40;;;3.80;99.90;;;;;;5107921;28;20028;-66
2023/03/08 10:48:36;;;;;;;36.80;15.68;;;4.00;99.90;;;;;;5103092;28;20024;-66
2023/03/08 10:51:06;;;;;;;35.03;15.60;;;3.90;99.90;;;;;;5066837;28;20367;-66
2023/03/08 10:53:32;;;;;;;33.42;14.85;;;3.90;99.90;;;;;;5084290;28;20135;-67
2023/03/08 10:56:00;;;;;;;25.58;11.98;;;4.00;99.90;;;;;;5104178;28;20024;-67
2023/03/08 10:58:30;;;;;;;40.30;15.15;;;4.10;99.90;;;;;;5105241;28;20119;-67
2023/03/08 11:00:59;;;;;;;30.65;15.15;;;4.20;99.90;;;;;;5099142;28;20020;-67
2023/03/08 11:03:26;;;;;;;38.00;14.50;;;4.30;99.90;;;;;;5092062;28;20023;-67
2023/03/08 11:05:59;;;;;;;32.90;14.50;;;4.30;99.90;;;;;;5087597;28;20044;-68
2023/03/08 11:08:36;;;;;;;41.75;15.32;;;4.40;99.90;;;;;;5086393;28;20062;-67
2023/03/08 11:11:13;;;;;;;40.30;15.45;;;4.40;99.90;;;;;;5085616;28;20074;-66
2023/03/08 11:13:41;;;;;;;37.95;16.65;;;4.60;99.90;;;;;;5100822;28;20385;-66
2023/03/08 11:16:32;;;;;;;37.40;15.40;;;4.60;99.90;;;;;;5095488;28;20052;-66
2023/03/08 11:19:21;;;;;;;37.25;14.82;;;4.60;99.90;;;;;;5068923;28;20037;-67
2023/03/08 11:21:50;;;;;;;37.55;15.75;;;4.60;99.90;;;;;;5091848;28;20491;-66
2023/03/08 11:24:30;;;;;;;35.95;15.82;;;4.60;99.90;;;;;;5094216;28;20030;-66
2023/03/08 11:27:10;;;;;;;38.10;15.25;;;4.70;99.90;;;;;;5087066;28;20037;-66
2023/03/08 11:30:00;;;;;;;36.13;14.88;;;4.80;99.90;;;;;;5094623;28;20131;-65
2023/03/08 11:32:29;;;;;;;37.83;14.98;;;4.90;99.90;;;;;;5085656;28;20073;-66
2023/03/08 11:35:23;;;;;;;29.30;13.35;;;4.90;99.90;;;;;;5086695;28;20470;-64
2023/03/08 11:38:00;;;;;;;38.00;15.70;;;5.00;99.90;;;;;;5086283;28;20044;-68
2023/03/08 11:40:48;;;;;;;33.05;14.70;;;4.90;99.90;;;;;;5080321;28;20024;-67
2023/03/08 11:43:29;;;;;;;36.38;15.70;;;4.90;99.90;;;;;;5071656;28;20128;-66
2023/03/08 11:46:12;;;;;;;34.47;14.80;;;5.00;99.90;;;;;;5070512;28;20063;-66
2023/03/08 11:48:43;;;;;;;33.78;14.23;;;5.10;99.90;;;;;;5072194;28;20336;-66
2023/03/08 11:51:24;;;;;;;32.80;14.00;;;5.00;99.90;;;;;;5072405;28;20031;-65
2023/03/08 11:54:04;;;;;;;35.00;16.42;;;5.00;99.90;;;;;;5071904;28;20085;-66
2023/03/08 11:56:35;;;;;;;33.25;15.60;;;5.10;99.90;;;;;;5071638;28;20059;-66
2023/03/08 11:59:24;;;;;;;34.88;15.80;;;5.10;99.90;;;;;;5073813;28;20031;-66
2023/03/08 12:02:10;;;;;;;37.55;16.92;;;5.10;99.90;;;;;;5089637;28;20019;-66
2023/03/08 12:04:56;;;;;;;34.58;16.38;;;5.10;99.90;;;;;;5086367;28;20029;-66
2023/03/08 12:07:34;;;;;;;34.67;15.48;;;5.20;99.90;;;;;;5081245;28;20024;-65
2023/03/08 12:10:14;;;;;;;31.30;15.55;;;5.20;99.90;;;;;;5091088;28;20078;-65
2023/03/08 12:12:52;;;;;;;32.08;16.20;;;5.20;99.90;;;;;;5089074;28;20020;-64
2023/03/08 12:15:41;;;;;;;30.85;14.90;;;5.20;99.90;;;;;;5084128;28;20457;-66
2023/03/08 12:18:26;;;;;;;27.60;14.45;;;5.20;99.90;;;;;;5067306;28;20019;-65
2023/03/08 12:21:01;;;;;;;26.95;12.73;;;5.20;99.90;;;;;;5072028;28;20043;-65
2023/03/08 12:23:38;;;;;;;27.63;12.73;;;5.20;99.90;;;;;;5071224;28;20472;-65
2023/03/08 12:26:15;;;;;;;26.27;12.52;;;5.20;99.90;;;;;;5070782;28;20111;-66
2023/03/08 12:29:05;;;;;;;30.13;12.68;;;5.20;99.90;;;;;;5084929;28;20040;-63
2023/03/08 12:31:43;;;;;;;23.40;10.90;;;5.20;99.90;;;;;;5068924;28;20040;-65
2023/03/08 12:34:26;;;;;;;24.45;10.52;;;5.20;99.90;;;;;;5071335;28;20016;-66
2023/03/08 12:36:51;;;;;;;23.27;10.18;;;5.20;99.90;;;;;;5080644;28;20130;-65
2023/03/08 12:39:25;;;;;;;19.00;10.43;;;5.20;99.90;;;;;;5088291;28;20165;-66
2023/03/08 12:41:58;;;;;;;19.15;9.18;;;5.20;99.90;;;;;;5088720;28;20396;-67
2023/03/08 12:44:27;;;;;;;21.92;10.00;;;5.10;99.90;;;;;;5089765;28;20051;-66
2023/03/08 12:47:16;;;;;;;20.83;10.35;;;5.10;99.90;;;;;;5085937;28;20028;-66
2023/03/08 12:50:09;;;;;;;18.63;9.43;;;5.10;99.90;;;;;;5067312;28;20036;-66
2023/03/08 12:52:35;;;;;;;20.27;9.55;;;5.00;99.90;;;;;;5077824;28;20027;-66
2023/03/08 12:55:05;;;;;;;19.58;9.00;;;5.00;99.90;;;;;;5090058;28;20024;-65
2023/03/08 12:57:53;;;;;;;17.95;8.27;;;5.00;99.90;;;;;;5076906;28;20463;-66
2023/03/08 13:00:19;;;;;;;18.48;9.02;;;5.00;99.90;;;;;;5069441;28;20440;-65
2023/03/08 13:02:56;;;;;;;16.60;8.27;;;5.00;99.90;;;;;;5075337;28;20495;-65
2023/03/08 13:05:35;;;;;;;15.48;7.75;;;5.10;99.90;;;;;;5089330;28;20538;-66
2023/03/08 13:08:13;;;;;;;14.05;7.13;;;5.20;99.90;;;;;;5087988;28;20031;-67
2023/03/08 13:10:57;;;;;;;13.32;7.28;;;5.30;99.90;;;;;;5069534;28;20025;-67
2023/03/08 13:13:38;;;;;;;14.10;7.78;;;5.40;99.90;;;;;;5072643;28;20147;-67
2023/03/08 13:16:19;;;;;;;15.88;7.35;;;5.30;99.90;;;;;;5088589;28;20305;-68
2023/03/08 13:18:47;;;;;;;14.27;7.72;;;5.30;99.90;;;;;;5071441;28;20083;-68
2023/03/08 13:21:28;;;;;;;14.25;6.85;;;5.20;99.90;;;;;;5069467;28;20050;-67
2023/03/08 13:24:26;;;;;;;14.50;7.45;;;5.20;99.90;;;;;;5049328;28;20028;-67
2023/03/08 13:26:57;;;;;;;13.90;6.90;;;5.10;99.90;;;;;;5071956;28;20581;-67
2023/03/08 13:29:29;;;;;;;13.48;6.35;;;5.00;99.90;;;;;;5077053;28;20048;-69
2023/03/08 13:31:55;;;;;;;13.48;7.25;;;4.90;99.90;;;;;;5073783;28;20032;-67
2023/03/08 13:34:27;;;;;;;12.77;6.72;;;4.90;99.90;;;;;;5068125;28;20043;-68
2023/03/08 13:36:53;;;;;;;11.45;6.13;;;5.00;99.90;;;;;;5068724;28;20028;-68
2023/03/08 13:39:22;;;;;;;11.77;7.38;;;5.00;99.90;;;;;;5069486;28;20019;-67
2023/03/08 13:41:48;;;;;;;12.88;7.07;;;5.00;99.90;;;;;;5069365;28;20035;-67
2023/03/08 13:44:20;;;;;;;11.55;6.05;;;5.00;99.90;;;;;;5069913;28;20016;-66
2023/03/08 13:46:49;;;;;;;12.35;5.63;;;5.10;99.90;;;;;;5069422;28;20024;-65
2023/03/08 13:49:35;;;;;;;13.65;6.78;;;5.10;99.90;;;;;;5068761;28;20090;-67
2023/03/08 13:52:11;;;;;;;13.60;6.60;;;5.10;99.90;;;;;;5069226;28;20040;-67
2023/03/08 13:54:44;;;;;;;13.35;7.53;;;5.10;99.90;;;;;;5067851;28;20066;-66
2023/03/08 13:57:30;;;;;;;12.93;7.05;;;5.10;99.90;;;;;;5068807;28;20082;-66
2023/03/08 13:59:59;;;;;;;14.20;6.80;;;5.00;99.90;;;;;;5063841;28;20036;-66
2023/03/08 14:02:28;;;;;;;10.80;6.13;;;5.00;99.90;;;;;;5070347;28;20028;-68
2023/03/08 14:04:54;;;;;;;10.52;6.38;;;4.90;99.90;;;;;;5069196;28;20032;-65
2023/03/08 14:07:30;;;;;;;10.63;6.20;;;4.90;99.90;;;;;;5068088;28;20028;-66
2023/03/08 14:09:57;;;;;;;11.40;6.50;;;5.00;99.90;;;;;;5069876;28;20123;-67
2023/03/08 14:12:32;;;;;;;12.52;7.35;;;5.00;99.90;;;;;;5081764;28;20442;-66
2023/03/08 14:15:03;;;;;;;11.00;6.03;;;5.00;99.90;;;;;;5071682;28;20040;-67
2023/03/08 14:17:33;;;;;;;11.85;6.82;;;5.00;99.90;;;;;;5069058;28;20021;-66
2023/03/08 14:20:15;;;;;;;11.82;5.95;;;4.90;99.90;;;;;;5069361;28;20032;-66
2023/03/08 14:22:47;;;;;;;12.07;5.90;;;4.90;99.90;;;;;;5083296;28;20661;-65
2023/03/08 14:25:28;;;;;;;14.40;6.95;;;4.90;99.90;;;;;;5054035;28;20542;-65
2023/03/08 14:27:54;;;;;;;12.20;6.43;;;4.90;99.90;;;;;;5068750;28;20403;-66
2023/03/08 14:30:27;;;;;;;13.60;6.40;;;4.90;99.90;;;;;;5079120;28;20134;-67
2023/03/08 14:33:15;;;;;;;11.52;6.78;;;4.90;99.90;;;;;;5082210;28;20036;-66
2023/03/08 14:35:50;;;;;;;11.82;6.55;;;4.80;99.90;;;;;;5088014;28;20184;-67
2023/03/08 14:38:26;;;;;;;11.55;6.82;;;4.90;99.90;;;;;;5073770;28;20029;-67
2023/03/08 14:40:52;;;;;;;13.18;6.68;;;4.90;99.90;;;;;;5084470;28;20098;-66
2023/03/08 14:43:20;;;;;;;11.60;6.38;;;4.90;99.90;;;;;;5078505;28;20425;-66
2023/03/08 14:46:02;;;;;;;11.75;5.88;;;4.90;99.90;;;;;;5086469;28;20039;-66
2023/03/08 14:48:36;;;;;;;10.88;5.53;;;4.90;99.90;;;;;;5088064;28;20146;-66
2023/03/08 14:51:04;;;;;;;11.10;5.93;;;4.80;99.90;;;;;;5087977;28;20145;-65
2023/03/08 14:53:33;;;;;;;12.50;6.53;;;4.80;99.90;;;;;;5084395;28;20043;-66
2023/03/08 14:56:02;;;;;;;11.93;5.93;;;4.70;99.90;;;;;;5086866;28;20070;-66
2023/03/08 14:58:33;;;;;;;11.00;6.20;;;4.70;99.90;;;;;;5087771;28;20515;-66
2023/03/08 15:01:00;;;;;;;11.77;5.97;;;4.80;99.90;;;;;;5075434;28;20085;-65
2023/03/08 15:03:30;;;;;;;11.25;6.43;;;4.80;99.90;;;;;;5070468;28;20036;-66
2023/03/08 15:05:56;;;;;;;13.85;6.78;;;4.90;99.90;;;;;;5079234;28;20036;-66
2023/03/08 15:08:22;;;;;;;13.60;6.60;;;5.00;99.90;;;;;;5082664;28;20032;-66
2023/03/08 15:10:48;;;;;;;10.10;6.72;;;4.90;99.90;;;;;;5086385;28;20067;-66
2023/03/08 15:13:22;;;;;;;12.88;6.65;;;4.90;99.90;;;;;;5075408;28;20114;-66
2023/03/08 15:15:48;;;;;;;11.95;6.47;;;4.90;99.90;;;;;;5084901;28;20032;-65
2023/03/08 15:18:14;;;;;;;15.85;7.47;;;4.80;99.90;;;;;;5075046;28;20541;-66
2023/03/08 15:20:48;;;;;;;11.98;5.75;;;4.80;99.90;;;;;;5081301;28;20107;-64
2023/03/08 15:23:22;;;;;;;11.05;6.28;;;4.80;99.90;;;;;;5089541;28;20028;-66
2023/03/08 15:25:49;;;;;;;13.85;6.57;;;4.80;99.90;;;;;;5088068;28;20027;-65
2023/03/08 15:28:16;;;;;;;13.95;6.70;;;4.70;99.90;;;;;;5090495;28;20496;-66
2023/03/08 15:30:42;;;;;;;12.00;6.72;;;4.70;99.90;;;;;;5077108;28;20060;-66
2023/03/08 15:33:08;;;;;;;13.80;6.78;;;4.70;99.90;;;;;;5072795;28;20357;-66
2023/03/08 15:35:34;;;;;;;11.38;6.63;;;4.70;99.90;;;;;;5091926;28;20024;-65
2023/03/08 15:38:00;;;;;;;11.27;6.93;;;4.70;99.90;;;;;;5077752;28;20156;-66
2023/03/08 15:40:28;;;;;;;14.68;5.85;;;4.70;99.90;;;;;;5071276;28;20476;-65
2023/03/08 15:42:54;;;;;;;12.43;6.75;;;4.70;99.90;;;;;;5078132;28;20437;-66
2023/03/08 15:45:20;;;;;;;12.55;6.53;;;4.70;99.90;;;;;;5069488;28;20052;-66
2023/03/08 15:48:05;;;;;;;13.43;6.75;;;4.70;99.90;;;;;;5071931;28;20025;-65
2023/03/08 15:50:32;;;;;;;9.35;5.43;;;4.70;99.90;;;;;;5071026;28;20087;-65
2023/03/08 15:52:58;;;;;;;11.95;6.20;;;4.70;99.90;;;;;;5078332;28;20017;-65
2023/03/08 15:55:26;;;;;;;14.55;6.93;;;4.70;99.90;;;;;;5070347;28;20175;-65
2023/03/08 15:57:52;;;;;;;12.88;6.75;;;4.50;99.90;;;;;;5079768;28;20020;-65
2023/03/08 16:00:19;;;;;;;12.48;6.22;;;4.50;99.90;;;;;;5085318;28;20029;-64
2023/03/08 16:02:45;;;;;;;13.43;7.43;;;4.50;99.90;;;;;;5083000;28;20038;-64
2023/03/08 16:05:12;;;;;;;13.30;6.97;;;4.40;99.90;;;;;;5070970;28;20411;-65
2023/03/08 16:07:38;;;;;;;12.32;6.55;;;4.40;99.90;;;;;;5070605;28;20036;-65
2023/03/08 16:10:06;;;;;;;13.75;6.82;;;4.30;99.90;;;;;;5071503;28;20055;-65
2023/03/08 16:12:31;;;;;;;12.10;7.32;;;4.30;99.90;;;;;;5070007;28;20033;-65
2023/03/08 16:14:57;;;;;;;14.57;7.07;;;4.20;99.90;;;;;;5070236;28;20023;-65
2023/03/08 16:17:26;;;;;;;14.27;6.97;;;4.30;99.90;;;;;;5071652;28;20059;-65
2023/03/08 16:19:52;;;;;;;15.10;7.90;;;4.20;99.90;;;;;;5090406;28;20484;-65
2023/03/08 16:22:18;;;;;;;14.95;7.68;;;4.20;99.90;;;;;;5089008;28;20066;-68
2023/03/08 16:24:44;;;;;;;13.02;6.88;;;4.30;99.90;;;;;;5077647;28;20047;-65
2023/03/08 16:27:10;;;;;;;12.02;6.75;;;4.20;99.90;;;;;;5070387;28;20016;-65
2023/03/08 16:29:36;;;;;;;13.20;7.32;;;4.20;99.90;;;;;;5070488;28;20052;-65
2023/03/08 16:32:02;;;;;;;15.07;7.63;;;4.10;99.90;;;;;;5070076;28;20111;-65
2023/03/08 16:34:28;;;;;;;13.75;7.75;;;4.10;99.90;;;;;;5070244;28;20100;-65
2023/03/08 16:36:55;;;;;;;15.82;7.93;;;4.00;99.90;;;;;;5082042;28;20024;-64
2023/03/08 16:39:22;;;;;;;13.25;7.35;;;4.00;99.90;;;;;;5074076;28;20021;-65
2023/03/08 16:41:48;;;;;;;13.90;7.40;;;4.00;99.90;;;;;;5067786;28;20066;-66
2023/03/08 16:44:26;;;;;;;15.52;7.53;;;4.00;99.90;;;;;;5070626;28;20442;-65
2023/03/08 16:46:52;;;;;;;13.05;7.50;;;4.00;99.90;;;;;;5049972;28;20079;-65
2023/03/08 16:49:19;;;;;;;14.45;7.57;;;3.90;99.90;;;;;;5050019;28;20041;-66
2023/03/08 16:51:45;;;;;;;14.65;7.28;;;3.90;99.90;;;;;;5067413;28;20024;-65
2023/03/08 16:54:11;;;;;;;14.52;7.68;;;3.90;99.90;;;;;;5069314;28;20457;-65
2023/03/08 16:56:39;;;;;;;14.95;9.00;;;3.90;99.90;;;;;;5068671;28;20102;-65
2023/03/08 16:59:05;;;;;;;13.45;7.82;;;3.90;99.90;;;;;;5081532;28;20039;-65
2023/03/08 17:01:31;;;;;;;14.98;7.72;;;3.80;99.90;;;;;;5089758;28;20049;-65
2023/03/08 17:03:57;;;;;;;16.45;8.38;;;3.70;99.90;;;;;;5087111;28;20465;-64
2023/03/08 17:06:26;;;;;;;21.48;12.35;;;3.70;99.90;;;;;;5088003;28;20032;-65
2023/03/08 17:08:51;;;;;;;19.40;10.25;;;3.60;99.90;;;;;;5070977;28;20024;-65
2023/03/08 17:11:23;;;;;;;15.52;9.65;;;3.60;99.90;;;;;;5075705;28;20039;-65
2023/03/08 17:13:51;;;;;;;15.27;7.90;;;3.60;99.90;;;;;;5089572;28;20024;-65
2023/03/08 17:16:22;;;;;;;20.75;9.88;;;3.60;99.90;;;;;;5073825;28;20540;-66
2023/03/08 17:18:49;;;;;;;22.55;9.90;;;3.60;99.90;;;;;;5068555;28;20051;-65
2023/03/08 17:21:15;;;;;;;23.73;11.05;;;3.60;99.90;;;;;;5076687;28;20094;-66
2023/03/08 17:23:41;;;;;;;30.20;15.93;;;3.60;99.90;;;;;;5077980;28;20024;-65
2023/03/08 17:26:09;;;;;;;24.63;14.13;;;3.50;99.90;;;;;;5069160;28;20028;-65
2023/03/08 17:28:35;;;;;;;22.83;12.50;;;3.50;99.90;;;;;;5069807;28;20051;-65
2023/03/08 17:31:05;;;;;;;24.92;12.57;;;3.50;99.90;;;;;;5067746;28;20567;-65
2023/03/08 17:33:31;;;;;;;23.42;12.55;;;3.50;99.90;;;;;;5068835;28;20025;-65
2023/03/08 17:35:58;;;;;;;34.53;17.23;;;3.50;99.90;;;;;;5070696;28;20103;-66
2023/03/08 17:38:24;;;;;;;33.80;16.70;;;3.50;99.90;;;;;;5069189;28;20507;-65
2023/03/08 17:40:50;;;;;;;27.48;15.32;;;3.50;99.90;;;;;;5069750;28;20035;-64
2023/03/08 17:43:16;;;;;;;37.33;18.00;;;3.50;99.90;;;;;;5070310;28;20020;-66
2023/03/08 17:45:41;;;;;;;32.80;16.23;;;3.50;99.90;;;;;;5069936;28;20035;-64
2023/03/08 17:48:09;;;;;;;20.80;11.45;;;3.50;99.90;;;;;;5075906;28;20374;-66
2023/03/08 17:50:35;;;;;;;19.00;9.93;;;3.50;99.90;;;;;;5088853;28;20480;-65
2023/03/08 17:53:01;;;;;;;16.38;8.80;;;3.40;99.90;;;;;;5089791;28;20036;-65
2023/03/08 17:55:27;;;;;;;17.45;9.20;;;3.40;99.90;;;;;;5090113;28;20120;-65
2023/03/08 17:57:53;;;;;;;20.05;10.68;;;3.30;99.90;;;;;;5088607;28;20455;-65
2023/03/08 18:00:19;;;;;;;16.25;8.60;;;3.30;99.90;;;;;;5090218;28;20008;-64
2023/03/08 18:02:45;;;;;;;19.95;9.70;;;3.30;99.90;;;;;;5088560;28;20493;-65
2023/03/08 18:05:11;;;;;;;22.60;10.95;;;3.30;99.90;;;;;;5082746;28;20028;-65
2023/03/08 18:07:38;;;;;;;20.15;9.98;;;3.20;99.90;;;;;;5069488;28;20206;-64
2023/03/08 18:10:05;;;;;;;20.02;8.95;;;3.20;99.90;;;;;;5070763;28;20101;-64
2023/03/08 18:12:31;;;;;;;15.68;10.05;;;3.20;99.90;;;;;;5051532;28;20028;-65
2023/03/08 18:14:56;;;;;;;23.40;11.02;;;3.20;99.90;;;;;;5049725;28;20021;-65
2023/03/08 18:17:22;;;;;;;22.70;11.52;;;3.20;99.90;;;;;;5052971;28;20015;-66
2023/03/08 18:19:48;;;;;;;21.98;11.02;;;3.20;99.90;;;;;;5069776;28;20024;-67
2023/03/08 18:22:14;;;;;;;24.77;13.60;;;3.20;99.90;;;;;;5068889;28;20111;-65
2023/03/08 18:24:39;;;;;;;20.08;10.45;;;3.10;99.90;;;;;;5070249;28;20025;-64
2023/03/08 18:27:05;;;;;;;23.80;11.93;;;3.10;99.90;;;;;;5087513;28;20032;-65
2023/03/08 18:29:33;;;;;;;21.35;11.18;;;3.10;99.90;;;;;;5088844;28;20051;-63
2023/03/08 18:31:59;;;;;;;20.05;10.50;;;3.10;99.90;;;;;;5074124;28;20020;-64
2023/03/08 18:34:26;;;;;;;16.50;9.05;;;3.10;99.90;;;;;;5069150;28;20177;-65
2023/03/08 18:36:55;;;;;;;17.00;9.57;;;3.00;99.90;;;;;;5069788;28;20035;-64
2023/03/08 18:39:20;;;;;;;21.38;10.07;;;3.00;99.90;;;;;;5069205;28;20024;-64
2023/03/08 18:41:46;;;;;;;19.42;8.98;;;3.00;99.90;;;;;;5068196;28;20377;-64
2023/03/08 18:44:12;;;;;;;18.50;9.18;;;2.90;99.90;;;;;;5069264;28;20059;-63
2023/03/08 18:46:38;;;;;;;31.63;14.48;;;2.90;99.90;;;;;;5068269;28;20029;-63
2023/03/08 18:49:06;;;;;;;43.10;20.17;;;2.90;99.90;;;;;;5068683;28;20021;-65
2023/03/08 18:51:34;;;;;;;46.28;22.27;;;2.80;99.90;;;;;;5072474;28;20359;-65
2023/03/08 18:54:00;;;;;;;37.47;17.30;;;2.80;99.90;;;;;;5074921;28;20016;-64
2023/03/08 18:56:27;;;;;;;28.98;14.07;;;2.70;99.90;;;;;;5072478;28;20598;-65
2023/03/08 18:58:54;;;;;;;30.92;15.88;;;2.70;99.90;;;;;;5074790;28;20012;-65
2023/03/08 19:01:20;;;;;;;24.13;12.07;;;2.70;99.90;;;;;;5073161;28;20040;-64
2023/03/08 19:03:46;;;;;;;17.45;10.38;;;2.70;99.90;;;;;;5078381;28;20095;-64
2023/03/08 19:06:12;;;;;;;16.15;9.38;;;2.60;99.90;;;;;;5092049;28;20020;-64
2023/03/08 19:08:38;;;;;;;15.45;9.27;;;2.60;99.90;;;;;;5092022;28;20066;-65
2023/03/08 19:11:15;;;;;;;16.17;9.27;;;2.60;99.90;;;;;;5091405;28;20206;-65
2023/03/08 19:13:42;;;;;;;16.77;8.05;;;2.50;99.90;;;;;;5091894;28;20101;-65
2023/03/08 19:16:19;;;;;;;16.52;8.43;;;2.50;99.90;;;;;;5091961;28;20067;-65
2023/03/08 19:18:46;;;;;;;12.00;7.57;;;2.50;99.90;;;;;;5073713;28;20024;-65
2023/03/08 19:21:16;;;;;;;17.10;9.15;;;2.50;99.90;;;;;;5070647;28;20052;-64
2023/03/08 19:23:42;;;;;;;15.80;7.95;;;2.40;99.90;;;;;;5081477;28;20032;-65
2023/03/08 19:29:04;;;;;;;14.70;8.07;;;2.50;99.90;;;;;;5091443;28;20087;-64
2023/03/08 19:31:30;;;;;;;17.10;10.45;;;2.40;99.90;;;;;;5078146;28;20171;-64
2023/03/08 19:33:56;;;;;;;17.08;11.85;;;2.40;99.90;;;;;;5069618;28;20519;-64
2023/03/08 19:36:22;;;;;;;15.38;9.80;;;2.40;99.90;;;;;;5071505;28;20021;-64
2023/03/08 19:38:48;;;;;;;18.02;11.30;;;2.40;99.90;;;;;;5070630;28;20070;-64
2023/03/08 19:41:14;;;;;;;16.08;9.70;;;2.30;99.90;;;;;;5070883;28;20031;-64
2023/03/08 19:43:41;;;;;;;16.27;9.82;;;2.40;99.90;;;;;;5071442;28;20024;-65
2023/03/08 19:46:08;;;;;;;13.05;7.95;;;2.40;99.90;;;;;;5070412;28;20029;-64
2023/03/08 19:48:34;;;;;;;14.38;9.13;;;2.40;99.90;;;;;;5070733;28;20043;-63
2023/03/08 19:51:00;;;;;;;14.70;9.23;;;2.30;99.90;;;;;;5089889;28;20433;-64
2023/03/08 19:53:25;;;;;;;13.93;8.02;;;2.40;99.90;;;;;;5090023;28;20024;-64
2023/03/08 19:55:53;;;;;;;14.70;8.30;;;2.40;99.90;;;;;;5091244;28;20411;-64
2023/03/08 19:58:19;;;;;;;17.90;10.70;;;2.40;99.90;;;;;;5090848;28;20028;-64
2023/03/08 20:00:45;;;;;;;14.60;8.90;;;2.40;99.90;;;;;;5088854;28;20020;-65
2023/03/08 20:03:13;;;;;;;14.82;8.75;;;2.30;99.90;;;;;;5090401;28;20028;-65
2023/03/08 20:05:45;;;;;;;12.00;7.55;;;2.40;99.90;;;;;;5090958;28;20020;-65
2023/03/08 20:08:11;;;;;;;;;;;2.40;99.90;;;;;;5080616;28;20024;-64
2023/03/08 20:10:37;;;;;;;14.23;7.60;;;2.50;99.90;;;;;;5070173;28;20003;-65
2023/03/08 20:13:04;;;;;;;15.65;9.05;;;2.40;99.90;;;;;;5057361;28;20040;-64
2023/03/08 20:15:31;;;;;;;14.38;8.00;;;2.50;99.90;;;;;;5050671;28;20657;-64
2023/03/08 20:17:56;;;;;;;17.13;8.88;;;2.50;99.90;;;;;;5069027;28;20077;-64
2023/03/08 20:20:22;;;;;;;16.35;9.00;;;2.50;99.90;;;;;;5076118;28;20020;-65
2023/03/08 20:22:48;;;;;;;20.33;10.60;;;2.40;99.90;;;;;;5069915;28;20019;-66
2023/03/08 20:25:14;;;;;;;19.08;9.07;;;2.40;99.90;;;;;;5071695;28;20035;-66
2023/03/08 20:27:42;;;;;;;15.68;8.27;;;2.40;99.90;;;;;;5074655;28;20031;-66
2023/03/08 20:30:10;;;;;;;14.68;7.28;;;2.40;99.90;;;;;;5077861;28;20496;-67
2023/03/08 20:32:36;;;;;;;13.13;6.72;;;2.40;99.90;;;;;;5070936;28;20040;-65
2023/03/08 20:35:04;;;;;;;13.57;6.93;;;2.40;99.90;;;;;;5078991;28;20454;-67
2023/03/08 20:37:30;;;;;;;15.50;7.30;;;2.40;99.90;;;;;;5072010;28;20086;-65
2023/03/08 20:39:57;;;;;;;12.73;6.65;;;2.40;99.90;;;;;;5081767;28;20032;-65
2023/03/08 20:42:24;;;;;;;13.73;7.55;;;2.40;99.90;;;;;;5070732;28;20036;-67
2023/03/08 20:44:50;;;;;;;15.57;8.05;;;2.40;99.90;;;;;;5070763;28;20028;-66
2023/03/08 20:47:16;;;;;;;15.43;8.20;;;2.40;99.90;;;;;;5069624;28;20123;-65
2023/03/08 20:49:42;;;;;;;13.02;7.00;;;2.40;99.90;;;;;;5069731;28;20021;-67
2023/03/08 20:52:09;;;;;;;15.68;8.82;;;2.30;99.90;;;;;;5070871;28;20526;-64
2023/03/08 20:54:35;;;;;;;16.77;7.95;;;2.30;99.90;;;;;;5072523;28;20013;-64
2023/03/08 20:57:00;;;;;;;15.73;9.43;;;2.30;99.90;;;;;;5071729;28;20117;-66
